Time,TemperatureF,DewpointF,PressureIn,WindDirection,WindDirectionDegrees,WindSpeedMPH,WindSpeedGustMPH,Humidity,HourlyPrecipIn,Conditions,Clouds,dailyrainin,SolarRadiationWatts/m^2,SoftwareType,DateUTC
2013-04-03 00:22:00,31.0,26.0,-100.00,SSE,161,6.0,8.0,82,0.00,,,0.00,0.000000,,2013-04-03 05:22:00,
2013-04-03 00:32:00,31.0,26.0,-100.00,SSE,161,6.0,8.0,82,0.00,,,0.00,0.000000,,2013-04-03 05:32:00,
2013-04-03 00:42:00,31.0,26.0,-100.00,SSE,161,6.0,8.0,82,0.00,,,0.00,0.000000,,2013-04-03 05:42:00,
2013-04-03 00:52:00,31.0,26.0,-100.00,SSE,161,6.0,8.0,82,0.00,,,0.00,0.000000,,2013-04-03 05:52:00,
2013-04-03 01:22:00,32.0,27.0,-100.00,SSE,155,8.0,9.0,80,0.00,,,0.00,0.000000,,2013-04-03 06:22:00,
2013-04-03 01:32:00,32.0,27.0,-100.00,SSE,155,8.0,9.0,80,0.00,,,0.00,0.000000,,2013-04-03 06:32:00,
2013-04-03 01:42:00,32.0,27.0,-100.00,SSE,155,8.0,9.0,80,0.00,,,0.00,0.000000,,2013-04-03 06:42:00,
2013-04-03 01:52:00,32.0,27.0,-100.00,SSE,155,8.0,9.0,80,0.00,,,0.00,0.000000,,2013-04-03 06:52:00,
2013-04-03 02:23:00,30.0,25.0,-100.00,South,180,7.0,9.0,82,0.00,,,0.00,0.000000,,2013-04-03 07:23:00,
2013-04-03 02:32:00,30.0,25.0,-100.00,South,180,7.0,9.0,82,0.00,,,0.00,0.000000,,2013-04-03 07:32:00,
2013-04-03 02:42:00,30.0,25.0,-100.00,South,180,7.0,9.0,82,0.00,,,0.00,0.000000,,2013-04-03 07:42:00,
2013-04-03 02:52:00,30.0,25.0,-100.00,South,180,7.0,9.0,82,0.00,,,0.00,0.000000,,2013-04-03 07:52:00,
2013-04-03 03:22:00,29.0,25.0,-100.00,SSW,193,6.0,8.0,86,0.00,,,0.00,0.000000,,2013-04-03 08:22:00,
2013-04-03 03:32:00,29.0,25.0,-100.00,SSW,193,6.0,8.0,86,0.00,,,0.00,0.000000,,2013-04-03 08:32:00,
2013-04-03 03:42:00,29.0,25.0,-100.00,SSW,193,6.0,8.0,86,0.00,,,0.00,0.000000,,2013-04-03 08:42:00,
2013-04-03 03:52:00,29.0,25.0,-100.00,SSW,193,6.0,8.0,86,0.00,,,0.00,0.000000,,2013-04-03 08:52:00,
2013-04-03 04:22:00,29.0,26.0,-100.00,SSE,152,7.0,8.0,89,0.00,,,0.00,0.000000,,2013-04-03 09:22:00,
2013-04-03 04:33:00,29.0,26.0,-100.00,SSE,152,7.0,8.0,89,0.00,,,0.00,0.000000,,2013-04-03 09:33:00,
2013-04-03 04:43:00,29.0,26.0,-100.00,SSE,152,7.0,8.0,89,0.00,,,0.00,0.000000,,2013-04-03 09:43:00,
2013-04-03 04:53:00,29.0,26.0,-100.00,SSE,152,7.0,8.0,89,0.00,,,0.00,0.000000,,2013-04-03 09:53:00,
2013-04-03 05:22:00,28.0,25.0,-100.00,SSE,150,7.0,8.0,89,0.00,,,0.00,0.000000,,2013-04-03 10:22:00,
2013-04-03 05:33:00,28.0,25.0,-100.00,SSE,150,7.0,8.0,89,0.00,,,0.00,0.000000,,2013-04-03 10:33:00,
2013-04-03 05:43:00,28.0,25.0,-100.00,SSE,150,7.0,8.0,89,0.00,,,0.00,0.000000,,2013-04-03 10:43:00,
2013-04-03 05:52:00,28.0,25.0,-100.00,SSE,150,7.0,8.0,89,0.00,,,0.00,0.000000,,2013-04-03 10:52:00,
2013-04-03 06:22:00,28.0,25.0,-100.00,SSE,167,7.0,8.0,90,0.00,,,0.00,0.000000,,2013-04-03 11:22:00,
2013-04-03 06:32:00,28.0,25.0,-100.00,SSE,167,7.0,8.0,90,0.00,,,0.00,0.000000,,2013-04-03 11:32:00,
2013-04-03 06:42:00,28.0,25.0,-100.00,SSE,167,7.0,8.0,90,0.00,,,0.00,0.000000,,2013-04-03 11:42:00,
2013-04-03 06:52:00,28.0,25.0,-100.00,SSE,167,7.0,8.0,90,0.00,,,0.00,0.000000,,2013-04-03 11:52:00,
2013-04-03 07:22:00,25.0,24.0,-100.00,SSE,164,4.0,7.0,95,0.00,,,0.00,0.000000,,2013-04-03 12:22:00,
2013-04-03 07:33:00,25.0,24.0,-100.00,SSE,164,4.0,7.0,95,0.00,,,0.00,0.000000,,2013-04-03 12:33:00,
2013-04-03 07:42:00,25.0,24.0,-100.00,SSE,164,4.0,7.0,95,0.00,,,0.00,0.000000,,2013-04-03 12:42:00,
2013-04-03 07:52:00,25.0,24.0,-100.00,SSE,164,4.0,7.0,95,0.00,,,0.00,0.000000,,2013-04-03 12:52:00,
2013-04-03 08:22:00,27.0,26.0,-100.00,SW,218,3.0,6.0,96,0.00,,,0.00,0.000000,,2013-04-03 13:22:00,
2013-04-03 08:32:00,27.0,26.0,-100.00,SW,218,3.0,6.0,96,0.00,,,0.00,0.000000,,2013-04-03 13:32:00,
2013-04-03 08:42:00,27.0,26.0,-100.00,SW,218,3.0,6.0,96,0.00,,,0.00,0.000000,,2013-04-03 13:42:00,
2013-04-03 08:52:00,27.0,26.0,-100.00,SW,218,3.0,6.0,96,0.00,,,0.00,0.000000,,2013-04-03 13:52:00,
2013-04-03 09:22:00,33.0,31.0,-100.00,South,171,6.0,8.0,94,0.00,,,0.00,0.000000,,2013-04-03 14:22:00,
2013-04-03 09:32:00,33.0,31.0,-100.00,South,171,6.0,8.0,94,0.00,,,0.00,0.000000,,2013-04-03 14:32:00,
2013-04-03 09:42:00,33.0,31.0,-100.00,South,171,6.0,8.0,94,0.00,,,0.00,0.000000,,2013-04-03 14:42:00,
2013-04-03 09:52:00,33.0,31.0,-100.00,South,171,6.0,8.0,94,0.00,,,0.00,0.000000,,2013-04-03 14:52:00,
2013-04-03 10:23:00,41.0,35.0,-100.00,South,176,10.0,14.0,79,0.00,,,0.00,0.000000,,2013-04-03 15:23:00,
2013-04-03 10:33:00,41.0,35.0,-100.00,South,176,10.0,14.0,79,0.00,,,0.00,0.000000,,2013-04-03 15:33:00,
2013-04-03 10:42:00,41.0,35.0,-100.00,South,176,10.0,14.0,79,0.00,,,0.00,0.000000,,2013-04-03 15:42:00,
2013-04-03 10:53:00,41.0,35.0,-100.00,South,176,10.0,14.0,79,0.00,,,0.00,0.000000,,2013-04-03 15:53:00,
2013-04-03 11:24:00,47.0,30.0,-100.00,South,173,14.0,17.0,52,0.00,,,0.00,0.000000,,2013-04-03 16:24:00,
2013-04-03 11:32:00,47.0,30.0,-100.00,South,173,14.0,17.0,52,0.00,,,0.00,0.000000,,2013-04-03 16:32:00,
2013-04-03 11:43:00,47.0,30.0,-100.00,South,173,14.0,17.0,52,0.00,,,0.00,0.000000,,2013-04-03 16:43:00,
2013-04-03 11:52:00,47.0,30.0,-100.00,South,173,14.0,17.0,52,0.00,,,0.00,0.000000,,2013-04-03 16:52:00,
2013-04-03 12:23:00,49.0,25.0,-100.00,South,177,14.0,21.0,38,0.00,,,0.00,0.000000,,2013-04-03 17:23:00,
2013-04-03 12:33:00,49.0,25.0,-100.00,South,177,14.0,21.0,38,0.00,,,0.00,0.000000,,2013-04-03 17:33:00,
2013-04-03 12:46:00,49.0,25.0,-100.00,South,177,14.0,21.0,38,0.00,,,0.00,0.000000,,2013-04-03 17:46:00,
2013-04-03 12:53:00,49.0,25.0,-100.00,South,177,14.0,21.0,38,0.00,,,0.00,0.000000,,2013-04-03 17:53:00,
2013-04-03 13:22:00,50.0,26.0,-100.00,South,185,16.0,20.0,39,0.00,,,0.00,0.000000,,2013-04-03 18:22:00,
2013-04-03 13:33:00,50.0,26.0,-100.00,South,185,16.0,20.0,39,0.00,,,0.00,0.000000,,2013-04-03 18:33:00,
2013-04-03 13:43:00,50.0,26.0,-100.00,South,185,16.0,20.0,39,0.00,,,0.00,0.000000,,2013-04-03 18:43:00,
2013-04-03 13:52:00,50.0,26.0,-100.00,South,185,16.0,20.0,39,0.00,,,0.00,0.000000,,2013-04-03 18:52:00,
2013-04-03 14:22:00,49.0,24.0,-100.00,South,180,15.0,21.0,37,0.00,,,0.00,0.000000,,2013-04-03 19:22:00,
2013-04-03 14:32:00,49.0,24.0,-100.00,South,180,15.0,21.0,37,0.00,,,0.00,0.000000,,2013-04-03 19:32:00,
2013-04-03 14:42:00,49.0,24.0,-100.00,South,180,15.0,21.0,37,0.00,,,0.00,0.000000,,2013-04-03 19:42:00,
2013-04-03 14:52:00,49.0,24.0,-100.00,South,180,15.0,21.0,37,0.00,,,0.00,0.000000,,2013-04-03 19:52:00,
2013-04-03 15:23:00,51.0,24.0,-100.00,South,191,15.0,22.0,35,0.00,,,0.00,0.000000,,2013-04-03 20:23:00,
2013-04-03 15:32:00,51.0,24.0,-100.00,South,191,15.0,22.0,35,0.00,,,0.00,0.000000,,2013-04-03 20:32:00,
2013-04-03 15:42:00,51.0,24.0,-100.00,South,191,15.0,22.0,35,0.00,,,0.00,0.000000,,2013-04-03 20:42:00,
2013-04-03 15:52:00,51.0,24.0,-100.00,South,191,15.0,22.0,35,0.00,,,0.00,0.000000,,2013-04-03 20:52:00,
2013-04-03 16:22:00,53.0,25.0,-100.00,South,175,14.0,21.0,34,0.00,,,0.00,0.000000,,2013-04-03 21:22:00,
2013-04-03 16:33:00,53.0,25.0,-100.00,South,175,14.0,21.0,34,0.00,,,0.00,0.000000,,2013-04-03 21:33:00,
2013-04-03 16:42:00,53.0,25.0,-100.00,South,175,14.0,21.0,34,0.00,,,0.00,0.000000,,2013-04-03 21:42:00,
2013-04-03 16:52:00,53.0,25.0,-100.00,South,175,14.0,21.0,34,0.00,,,0.00,0.000000,,2013-04-03 21:52:00,
2013-04-03 17:22:00,52.0,25.0,-100.00,South,182,14.0,21.0,35,0.00,,,0.00,0.000000,,2013-04-03 22:22:00,
2013-04-03 17:32:00,52.0,25.0,-100.00,South,182,14.0,21.0,35,0.00,,,0.00,0.000000,,2013-04-03 22:32:00,
2013-04-03 17:42:00,52.0,25.0,-100.00,South,182,14.0,21.0,35,0.00,,,0.00,0.000000,,2013-04-03 22:42:00,
2013-04-03 17:52:00,52.0,25.0,-100.00,South,182,14.0,21.0,35,0.00,,,0.00,0.000000,,2013-04-03 22:52:00,
2013-04-03 18:22:00,49.0,24.0,-100.00,SSW,197,12.0,20.0,37,0.00,,,0.00,0.000000,,2013-04-03 23:22:00,
2013-04-03 18:32:00,49.0,24.0,-100.00,SSW,197,12.0,20.0,37,0.00,,,0.00,0.000000,,2013-04-03 23:32:00,
2013-04-03 18:42:00,49.0,24.0,-100.00,SSW,197,12.0,20.0,37,0.00,,,0.00,0.000000,,2013-04-03 23:42:00,
2013-04-03 18:53:00,49.0,24.0,-100.00,SSW,197,12.0,20.0,37,0.00,,,0.00,0.000000,,2013-04-03 23:53:00,
2013-04-03 19:22:00,48.0,23.0,-100.00,SSW,203,12.0,17.0,37,0.00,,,0.00,0.000000,,2013-04-04 00:22:00,
2013-04-03 19:32:00,48.0,23.0,-100.00,SSW,203,12.0,17.0,37,0.00,,,0.00,0.000000,,2013-04-04 00:32:00,
2013-04-03 19:43:00,48.0,23.0,-100.00,SSW,203,12.0,17.0,37,0.00,,,0.00,0.000000,,2013-04-04 00:43:00,
2013-04-03 19:52:00,48.0,23.0,-100.00,SSW,203,12.0,17.0,37,0.00,,,0.00,0.000000,,2013-04-04 00:52:00,
2013-04-03 20:22:00,41.0,24.0,-100.00,South,186,7.0,15.0,50,0.00,,,0.00,0.000000,,2013-04-04 01:22:00,
2013-04-03 20:32:00,41.0,24.0,-100.00,South,186,7.0,15.0,50,0.00,,,0.00,0.000000,,2013-04-04 01:32:00,
2013-04-03 20:43:00,41.0,24.0,-100.00,South,186,7.0,15.0,50,0.00,,,0.00,0.000000,,2013-04-04 01:43:00,
2013-04-03 20:52:00,41.0,24.0,-100.00,South,186,7.0,15.0,50,0.00,,,0.00,0.000000,,2013-04-04 01:52:00,
2013-04-03 21:22:00,37.0,27.0,-100.00,South,182,8.0,11.0,66,0.00,,,0.00,0.000000,,2013-04-04 02:22:00,
2013-04-03 21:32:00,37.0,27.0,-100.00,South,182,8.0,11.0,66,0.00,,,0.00,0.000000,,2013-04-04 02:32:00,
2013-04-03 21:42:00,37.0,27.0,-100.00,South,182,8.0,11.0,66,0.00,,,0.00,0.000000,,2013-04-04 02:42:00,
2013-04-03 21:52:00,37.0,27.0,-100.00,South,182,8.0,11.0,66,0.00,,,0.00,0.000000,,2013-04-04 02:52:00,
2013-04-03 22:22:00,33.0,27.0,-100.00,SSW,200,7.0,10.0,77,0.00,,,0.00,0.000000,,2013-04-04 03:22:00,
2013-04-03 22:33:00,33.0,27.0,-100.00,SSW,200,7.0,10.0,77,0.00,,,0.00,0.000000,,2013-04-04 03:33:00,
2013-04-03 22:53:00,33.0,27.0,-100.00,SSW,200,7.0,10.0,77,0.00,,,0.00,0.000000,,2013-04-04 03:53:00,
2013-04-03 23:23:00,32.0,28.0,-100.00,SSW,196,7.0,9.0,86,0.00,,,0.00,0.000000,,2013-04-04 04:23:00,
2013-04-03 23:33:00,32.0,28.0,-100.00,SSW,196,7.0,9.0,86,0.00,,,0.00,0.000000,,2013-04-04 04:33:00,
2013-04-03 23:43:00,32.0,28.0,-100.00,SSW,196,7.0,9.0,86,0.00,,,0.00,0.000000,,2013-04-04 04:43:00,
2013-04-03 23:52:00,32.0,28.0,-100.00,SSW,196,7.0,9.0,86,0.00,,,0.00,0.000000,,2013-04-04 04:52:00,